Time;durP1;ratioP1;P1;durP2;ratioP2;P2;SDS_P1;SDS_P2;PMS_P1;PMS_P2;Temp;Humidity;BMP_temperature;BMP_pressure;BME280_temperature;BME280_humidity;BME280_pressure;Samples;Min_cycle;Max_cycle;Signal;HPM_P1;HPM_P2
2022/12/06 00:01:45;;;;;;;10.13;4.70;;;;;;;-5.80;54.01;102673.43;1721855;81;21198;-87
2022/12/06 00:04:14;;;;;;;13.40;5.25;;;;;;;-5.77;53.97;102677.41;1721790;82;21037;-85
2022/12/06 00:06:53;;;;;;;14.30;5.50;;;;;;;-5.73;53.84;102670.34;1721922;82;20945;-87
2022/12/06 00:09:23;;;;;;;12.93;5.55;;;;;;;-5.69;53.90;102670.52;1721849;82;20938;-89
2022/12/06 00:11:49;;;;;;;10.05;5.53;;;;;;;-5.66;53.62;102670.63;1721953;81;20946;-87
2022/12/06 00:14:16;;;;;;;8.80;5.15;;;;;;;-5.71;53.57;102673.41;1721909;82;21173;-87
2022/12/06 00:16:42;;;;;;;10.00;4.90;;;;;;;-5.74;53.64;102665.61;1721860;82;20902;-87
2022/12/06 00:19:14;;;;;;;9.35;5.03;;;;;;;-5.72;53.73;102670.79;1721988;81;20905;-87
2022/12/06 00:21:41;;;;;;;7.53;4.87;;;;;;;-5.73;53.62;102659.70;1742560;80;20949;-88
2022/12/06 00:24:13;;;;;;;9.30;4.30;;;;;;;-5.74;53.55;102673.69;1750485;82;20945;-87
2022/12/06 00:26:43;;;;;;;8.18;4.55;;;;;;;-5.78;53.64;102662.48;1750453;80;21254;-86
2022/12/06 00:29:18;;;;;;;9.10;3.80;;;;;;;-5.84;53.64;102661.83;1750357;80;20925;-88
2022/12/06 00:31:45;;;;;;;10.40;4.65;;;;;;;-5.86;53.69;102663.44;1750447;80;20885;-87
2022/12/06 00:34:11;;;;;;;9.88;5.20;;;;;;;-5.92;53.86;102661.05;1750354;80;20913;-89
2022/12/06 00:36:39;;;;;;;8.33;4.85;;;;;;;-5.96;54.00;102661.34;1750565;80;20976;-86
2022/12/06 00:39:11;;;;;;;17.75;7.20;;;;;;;-6.02;54.25;102662.39;1750455;81;21398;-87
2022/12/06 00:41:38;;;;;;;11.10;5.62;;;;;;;-6.11;54.45;102659.05;1750327;80;21063;-87
2022/12/06 00:44:04;;;;;;;15.45;7.30;;;;;;;-6.11;54.78;102656.50;1750429;80;20910;-86
2022/12/06 00:46:31;;;;;;;10.55;5.95;;;;;;;-6.09;54.94;102657.81;1750320;80;20977;-86
2022/12/06 00:48:59;;;;;;;13.53;7.60;;;;;;;-6.06;54.95;102655.00;1750543;80;21067;-86
2022/12/06 00:51:28;;;;;;;11.43;5.83;;;;;;;-6.06;54.97;102655.00;1750370;82;21141;-85
2022/12/06 00:53:54;;;;;;;22.05;7.58;;;;;;;-6.06;55.16;102656.28;1750286;80;20925;-86
2022/12/06 00:56:21;;;;;;;18.80;6.67;;;;;;;-6.07;55.13;102655.83;1750420;80;21012;-86
2022/12/06 00:58:47;;;;;;;16.65;7.85;;;;;;;-6.12;55.23;102648.36;1750358;80;20901;-88
2022/12/06 01:01:16;;;;;;;11.70;5.58;;;;;;;-6.14;55.31;102649.11;1750325;80;20925;-87
2022/12/06 01:03:43;;;;;;;8.33;5.25;;;;;;;-6.18;55.39;102642.12;1750419;80;21152;-86
2022/12/06 01:06:13;;;;;;;11.83;5.45;;;;;;;-6.28;55.71;102644.71;1750463;80;20933;-85
2022/12/06 01:08:39;;;;;;;14.18;5.85;;;;;;;-6.30;55.89;102647.19;1750489;80;21473;-85
2022/12/06 01:11:07;;;;;;;15.78;6.00;;;;;;;-6.29;56.04;102645.50;1750513;80;20984;-87
2022/12/06 01:13:34;;;;;;;11.88;5.30;;;;;;;-6.34;56.28;102638.06;1750555;80;20842;-85
2022/12/06 01:16:09;;;;;;;12.88;5.60;;;;;;;-6.34;56.48;102631.27;1750363;80;21287;-86
2022/12/06 01:18:36;;;;;;;10.55;6.60;;;;;;;-6.38;56.54;102642.19;1750841;80;20893;-85
2022/12/06 01:21:09;;;;;;;15.25;5.05;;;;;;;-6.39;56.77;102644.25;1750959;80;20909;-86
2022/12/06 01:23:37;;;;;;;12.93;6.83;;;;;;;-6.39;56.68;102639.56;1750341;80;20941;-86
2022/12/06 01:26:04;;;;;;;12.80;5.53;;;;;;;-6.43;56.85;102636.00;1750407;80;21359;-86
2022/12/06 01:28:31;;;;;;;13.40;6.20;;;;;;;-6.39;56.98;102629.35;1750330;80;21161;-85
2022/12/06 01:30:58;;;;;;;16.50;7.55;;;;;;;-6.40;56.95;102629.77;1750289;80;20924;-86
2022/12/06 01:33:25;;;;;;;13.65;6.50;;;;;;;-6.39;56.96;102630.22;1750445;80;20885;-86
2022/12/06 01:35:51;;;;;;;13.58;6.22;;;;;;;-6.34;57.05;102632.95;1750504;80;21320;-87
2022/12/06 01:38:18;;;;;;;12.55;5.97;;;;;;;-6.31;56.88;102633.97;1750384;80;20873;-86
2022/12/06 01:40:46;;;;;;;9.90;5.60;;;;;;;-6.32;56.87;102632.20;1750368;80;21901;-89
2022/12/06 01:43:40;;;;;;;11.90;4.95;;;;;;;-6.36;56.96;102630.33;1750228;80;20878;-86
2022/12/06 01:46:27;;;;;;;11.33;6.00;;;;;;;-6.39;57.05;102621.70;1750296;80;21466;-87
2022/12/06 01:49:14;;;;;;;12.35;6.55;;;;;;;-6.46;57.16;102623.11;1750903;80;20889;-86
2022/12/06 01:51:45;;;;;;;10.25;5.47;;;;;;;-6.52;57.23;102614.78;1751263;80;20988;-86
2022/12/06 01:54:13;;;;;;;11.95;6.28;;;;;;;-6.60;57.44;102626.74;1751145;81;21223;-87
2022/12/06 01:58:03;;;;;;;17.77;7.85;;;;;;;-6.61;57.89;102621.19;1854510;77;22655;-87
2022/12/06 02:00:30;;;;;;;15.98;5.33;;;;;;;-6.52;58.04;102616.47;1825575;78;20891;-85
2022/12/06 02:02:56;;;;;;;9.33;5.45;;;;;;;-6.39;57.79;102613.63;1825852;78;21128;-86
2022/12/06 02:05:24;;;;;;;11.93;5.62;;;;;;;-6.32;57.67;102620.72;1816721;78;20911;-87
2022/12/06 02:07:50;;;;;;;11.68;5.67;;;;;;;-6.31;57.26;102613.55;1818588;77;20915;-87
2022/12/06 02:10:17;;;;;;;9.83;5.50;;;;;;;-6.38;57.42;102614.11;1815440;79;20962;-87
2022/12/06 02:12:44;;;;;;;13.28;6.12;;;;;;;-6.32;57.61;102618.58;1815389;78;20892;-88
2022/12/06 02:15:10;;;;;;;11.38;6.55;;;;;;;-6.28;57.40;102620.45;1815357;78;21239;-88
2022/12/06 02:17:52;;;;;;;14.90;7.28;;;;;;;-6.23;57.53;102618.09;1815194;79;20971;-88
2022/12/06 02:20:42;;;;;;;18.35;7.90;;;;;;;-6.16;57.31;102615.84;1815115;79;20884;-88
2022/12/06 02:23:23;;;;;;;15.60;7.20;;;;;;;-6.11;57.08;102613.50;1815218;78;20993;-87
2022/12/06 02:26:35;;;;;;;18.55;7.28;;;;;;;-6.12;56.90;102606.63;1815387;79;20907;-87
2022/12/06 02:29:22;;;;;;;10.85;5.58;;;;;;;-6.08;56.90;102604.27;1815625;79;21278;-86
2022/12/06 02:32:09;;;;;;;16.70;6.92;;;;;;;-6.15;56.83;102601.00;1780562;79;20857;-87
2022/12/06 02:35:11;;;;;;;9.98;5.08;;;;;;;-6.22;56.90;102602.84;1746247;81;21040;-87
2022/12/06 02:37:52;;;;;;;12.58;5.83;;;;;;;-6.31;56.88;102605.89;1746374;81;20995;-87
2022/12/06 02:40:22;;;;;;;12.37;5.40;;;;;;;-6.40;57.20;102611.00;1746462;82;21500;-86
2022/12/06 02:42:54;;;;;;;12.15;6.20;;;;;;;-6.42;57.28;102612.61;1746301;82;21272;-89
2022/12/06 02:45:25;;;;;;;13.62;6.08;;;;;;;-6.43;57.39;102605.78;1746238;82;20935;-86
2022/12/06 02:47:51;;;;;;;13.65;6.53;;;;;;;-6.41;57.69;102615.23;1746288;82;21353;-87
2022/12/06 02:50:22;;;;;;;13.83;6.87;;;;;;;-6.40;57.67;102614.45;1746187;82;21580;-86
2022/12/06 02:52:50;;;;;;;17.52;6.92;;;;;;;-6.42;57.76;102607.51;1746475;82;20860;-87
2022/12/06 02:55:16;;;;;;;12.33;5.97;;;;;;;-6.41;58.02;102602.48;1746331;82;21441;-86
2022/12/06 02:57:46;;;;;;;15.98;6.28;;;;;;;-6.34;57.99;102591.70;1752403;81;20849;-86
2022/12/06 03:00:37;;;;;;;11.33;6.42;;;;;;;-6.32;57.93;102594.33;1754364;81;21006;-86
2022/12/06 03:03:42;;;;;;;18.30;7.35;;;;;;;-6.31;57.92;102596.95;1754425;81;21089;-86
2022/12/06 03:06:18;;;;;;;11.83;5.70;;;;;;;-6.34;57.79;102593.39;1754480;81;20939;-86
2022/12/06 03:09:26;;;;;;;11.15;6.58;;;;;;;-6.32;58.00;102596.88;1754275;81;21246;-87
2022/12/06 03:12:07;;;;;;;10.30;5.87;;;;;;;-6.31;58.11;102594.81;1792885;78;20884;-85
2022/12/06 03:15:15;;;;;;;12.55;5.87;;;;;;;-6.24;57.94;102598.08;1822546;78;20987;-87
2022/12/06 03:18:03;;;;;;;13.98;6.35;;;;;;;-6.27;57.71;102589.89;1820726;78;21370;-87
2022/12/06 03:20:44;;;;;;;13.68;7.35;;;;;;;-6.34;57.71;102589.56;1817409;78;20919;-86
2022/12/06 03:23:14;;;;;;;14.07;6.12;;;;;;;-6.41;58.01;102596.09;1820869;78;21191;-86
2022/12/06 03:25:41;;;;;;;10.53;6.08;;;;;;;-6.43;57.87;102587.91;1820662;78;20911;-86
2022/12/06 03:28:09;;;;;;;10.23;5.85;;;;;;;-6.47;57.82;102581.80;1820563;78;20919;-86
2022/12/06 03:30:37;;;;;;;9.33;5.47;;;;;;;-6.58;57.83;102580.48;1820648;78;20931;-86
2022/12/06 03:33:04;;;;;;;11.45;6.08;;;;;;;-6.67;58.26;102587.34;1820692;78;20883;-87
2022/12/06 03:35:32;;;;;;;10.30;4.92;;;;;;;-6.65;58.42;102581.90;1818240;78;21587;-87
2022/12/06 03:38:11;;;;;;;9.15;5.67;;;;;;;-6.61;58.44;102578.67;1817682;78;20924;-87
2022/12/06 03:40:40;;;;;;;8.83;5.72;;;;;;;-6.54;58.54;102576.84;1820531;78;21406;-87
2022/12/06 03:43:07;;;;;;;10.53;5.75;;;;;;;-6.54;58.08;102582.36;1820550;78;20920;-86
2022/12/06 03:45:54;;;;;;;9.63;5.67;;;;;;;-6.64;58.19;102576.42;1820670;78;20879;-87
2022/12/06 03:48:45;;;;;;;8.75;5.78;;;;;;;-6.71;58.44;102575.29;1794776;78;21847;-86
2022/12/06 03:51:25;;;;;;;8.28;5.22;;;;;;;-6.66;58.55;102581.45;1820423;78;20935;-87
2022/12/06 03:53:53;;;;;;;10.08;5.80;;;;;;;-6.68;58.25;102583.92;1806554;78;20864;-87
2022/12/06 03:56:20;;;;;;;12.05;6.20;;;;;;;-6.81;58.22;102576.55;1819840;78;20899;-87
2022/12/06 03:58:47;;;;;;;14.15;5.45;;;;;;;-6.83;58.64;102569.65;1807200;79;20983;-88
2022/12/06 04:01:14;;;;;;;12.00;5.75;;;;;;;-6.85;58.54;102555.55;1807003;79;21271;-86
2022/12/06 04:03:41;;;;;;;8.28;5.45;;;;;;;-6.85;58.71;102560.64;1807052;78;20873;-86
2022/12/06 04:06:07;;;;;;;10.25;5.75;;;;;;;-6.84;58.54;102564.09;1807275;79;20900;-86
2022/12/06 04:08:34;;;;;;;10.43;5.50;;;;;;;-6.88;58.46;102563.08;1807136;79;20853;-86
2022/12/06 04:11:01;;;;;;;11.20;6.10;;;;;;;-6.86;58.79;102558.05;1807098;78;20873;-85
2022/12/06 04:13:29;;;;;;;12.88;5.17;;;;;;;-6.84;58.62;102556.44;1807708;78;21141;-87
2022/12/06 04:15:59;;;;;;;9.78;4.80;;;;;;;-6.81;58.57;102558.70;1807758;79;20983;-84
2022/12/06 04:18:26;;;;;;;10.40;6.42;;;;;;;-6.78;58.68;102553.75;1809043;79;20950;-87
2022/12/06 04:23:48;;;;;;;10.00;5.28;;;;;;;-6.80;58.41;102553.19;1807405;79;20901;-87
2022/12/06 08:57:22;;;;;;;14.10;5.42;;;;;;;-2.73;44.56;102357.46;1712005;82;21069;-86
2022/12/06 08:59:49;;;;;;;8.73;5.05;;;;;;;-2.70;44.34;102360.51;1703055;83;21236;-86
2022/12/06 09:02:15;;;;;;;7.25;4.05;;;;;;;-2.66;44.54;102351.19;1723189;82;20997;-87
2022/12/06 09:04:42;;;;;;;8.43;5.12;;;;;;;-2.62;44.43;102350.43;1723205;82;20882;-88
2022/12/06 09:07:08;;;;;;;12.15;5.35;;;;;;;-2.56;44.13;102353.97;1723322;81;20926;-88
2022/12/06 09:09:35;;;;;;;9.93;5.33;;;;;;;-2.47;43.54;102352.45;1723392;82;20941;-87
2022/12/06 09:12:01;;;;;;;9.48;5.30;;;;;;;-2.40;43.66;102342.74;1723752;83;21142;-88
2022/12/06 09:14:28;;;;;;;10.85;6.05;;;;;;;-2.34;42.97;102339.89;1723521;83;20906;-87
2022/12/06 09:16:55;;;;;;;13.43;6.25;;;;;;;-2.28;43.17;102337.88;1723623;83;21084;-88
2022/12/06 09:19:21;;;;;;;9.58;5.72;;;;;;;-2.24;43.14;102345.25;1723469;82;20918;-88
2022/12/06 09:21:48;;;;;;;11.22;5.20;;;;;;;-2.23;43.18;102334.98;1723145;82;20902;-87
2022/12/06 09:24:16;;;;;;;10.98;5.22;;;;;;;-2.20;43.39;102338.91;1723220;82;21430;-86
2022/12/06 09:26:42;;;;;;;11.18;5.78;;;;;;;-2.13;43.37;102324.48;1723397;82;20898;-87
2022/12/06 09:29:09;;;;;;;16.62;6.03;;;;;;;-2.03;43.16;102321.23;1723267;82;21416;-87
2022/12/06 09:31:38;;;;;;;9.20;5.67;;;;;;;-1.95;43.06;102312.41;1723345;82;20962;-89
2022/12/06 09:34:07;;;;;;;14.25;5.97;;;;;;;-1.90;43.03;102303.06;1686158;83;20914;-87
2022/12/06 09:36:39;;;;;;;12.35;5.58;;;;;;;-1.84;43.17;102306.19;1723673;82;21271;-88
2022/12/06 09:39:15;;;;;;;8.40;5.40;;;;;;;-1.77;43.22;102293.45;1724423;82;20941;-87
2022/12/06 09:42:35;;;;;;;9.75;5.25;;;;;;;-1.71;43.10;102294.86;1694817;83;20909;-88
2022/12/06 09:45:25;;;;;;;9.75;4.50;;;;;;;-1.72;43.20;102281.95;1694504;82;21419;-87
2022/12/06 09:48:12;;;;;;;9.73;5.15;;;;;;;-1.70;43.02;102280.28;1691661;83;21000;-87
2022/12/06 09:51:08;;;;;;;12.28;5.40;;;;;;;-1.69;43.16;102284.57;1693906;83;21260;-87
2022/12/06 09:54:04;;;;;;;12.10;5.08;;;;;;;-1.70;43.12;102276.42;1694857;84;20902;-88
2022/12/06 09:56:56;;;;;;;11.48;5.33;;;;;;;-1.69;43.30;102267.46;1694516;83;20978;-88
2022/12/06 09:59:40;;;;;;;8.83;5.08;;;;;;;-1.63;43.34;102255.11;1695140;83;20966;-87
2022/12/06 10:02:30;;;;;;;10.28;6.10;;;;;;;-1.58;43.17;102262.90;1678872;83;21455;-87
2022/12/06 10:05:14;;;;;;;13.85;6.20;;;;;;;-1.51;43.31;102254.47;1694330;83;21154;-87
2022/12/06 10:07:52;;;;;;;15.13;6.10;;;;;;;-1.46;42.99;102254.11;1695081;83;21001;-88
2022/12/06 10:10:33;;;;;;;8.15;4.87;;;;;;;-1.42;43.06;102249.47;1694666;84;21187;-87
2022/12/06 11:55:38;;;;;;;6.83;3.90;;;;;;;0.40;40.81;102133.80;1809087;77;21075;-89
2022/12/06 11:58:15;;;;;;;8.93;4.43;;;;;;;0.55;40.61;102134.33;1809793;78;21512;-85
2022/12/06 12:01:01;;;;;;;12.65;5.53;;;;;;;0.74;40.37;102123.69;1798058;79;20931;-88
2022/12/06 12:03:32;;;;;;;17.65;6.25;;;;;;;0.88;40.19;102116.00;1816951;78;20848;-89
2022/12/06 12:06:24;;;;;;;17.52;5.62;;;;;;;1.05;40.07;102119.95;1805059;78;21386;-90
2022/12/06 12:08:58;;;;;;;18.77;4.47;;;;;;;1.23;39.82;102114.40;1804958;77;20930;-89
2022/12/06 12:11:32;;;;;;;12.35;4.15;;;;;;;1.40;39.16;102120.03;1797115;79;21035;-88
2022/12/06 12:14:02;;;;;;;13.83;4.75;;;;;;;1.47;39.20;102110.16;1798492;79;20940;-88
2022/12/06 12:16:36;;;;;;;17.67;5.58;;;;;;;1.48;38.74;102110.57;1801049;78;20909;-88
2022/12/06 12:19:08;;;;;;;13.27;4.53;;;;;;;1.45;38.88;102114.45;1797807;79;21243;-87
2022/12/06 12:21:40;;;;;;;16.67;5.25;;;;;;;1.42;39.08;102110.55;1796677;77;21453;-88
2022/12/06 12:24:44;;;;;;;14.00;4.95;;;;;;;1.45;39.08;102108.00;1814412;78;20900;-88
2022/12/06 12:27:42;;;;;;;6.17;3.22;;;;;;;1.48;38.86;102109.28;1807301;77;21132;-87
2022/12/06 12:30:35;;;;;;;12.25;4.65;;;;;;;1.48;38.36;102111.02;1814055;77;21065;-86
2022/12/06 12:33:10;;;;;;;10.58;4.50;;;;;;;1.49;38.38;102109.73;1813017;79;21353;-87
2022/12/06 12:35:44;;;;;;;9.18;4.75;;;;;;;1.49;37.90;102100.69;1804143;78;20979;-87
2022/12/06 12:38:15;;;;;;;21.42;5.80;;;;;;;1.48;38.04;102098.09;1782894;79;21027;-87
2022/12/06 12:40:45;;;;;;;17.37;5.47;;;;;;;1.48;38.05;102098.09;1798048;77;21010;-88
2022/12/06 12:43:25;;;;;;;16.95;4.95;;;;;;;1.48;38.01;102101.53;1796595;79;20877;-88
2022/12/06 12:46:13;;;;;;;12.88;5.08;;;;;;;1.52;38.05;102095.94;1811660;78;21505;-88
2022/12/06 12:48:42;;;;;;;11.40;5.42;;;;;;;1.55;38.13;102095.50;1794248;78;21070;-89
2022/12/06 12:51:33;;;;;;;14.00;6.25;;;;;;;1.56;37.76;102105.00;1801655;78;20919;-87
2022/12/06 12:54:25;;;;;;;10.20;3.80;;;;;;;1.51;37.57;102094.20;1805564;79;21051;-86
2022/12/06 12:56:53;;;;;;;10.28;2.95;;;;;;;1.43;36.85;102112.30;1801946;78;20819;-88
2022/12/06 12:59:25;;;;;;;10.13;3.52;;;;;;;1.36;37.16;102097.64;1792831;79;21229;-87
2022/12/06 13:01:57;;;;;;;11.35;4.70;;;;;;;1.31;37.22;102091.17;1788393;80;20906;-89
2022/12/06 13:04:40;;;;;;;13.80;4.53;;;;;;;1.27;37.33;102083.38;1797526;79;21002;-87
2022/12/06 13:07:18;;;;;;;14.63;6.25;;;;;;;1.20;37.53;102095.42;1811750;78;20995;-89
2022/12/06 13:10:05;;;;;;;23.75;7.42;;;;;;;1.14;37.68;102098.88;1798115;79;20924;-88
2022/12/06 13:12:41;;;;;;;15.93;7.17;;;;;;;1.09;37.72;102089.37;1807494;79;21248;-88
2022/12/06 13:15:32;;;;;;;25.25;10.32;;;;;;;1.05;37.92;102083.35;1784627;80;20867;-87
2022/12/06 13:18:27;;;;;;;18.12;9.50;;;;;;;1.00;38.01;102084.63;1813630;79;20900;-88
2022/12/06 13:20:57;;;;;;;11.63;4.72;;;;;;;0.96;38.11;102082.03;1815330;78;20967;-87
2022/12/06 13:23:28;;;;;;;10.70;4.25;;;;;;;0.86;38.07;102067.35;1804309;77;20976;-88
2022/12/06 13:26:03;;;;;;;10.03;4.53;;;;;;;0.79;38.04;102063.88;1812026;78;21035;-87
2022/12/06 21:24:34;;;;;;;11.10;4.60;;;;;;;-1.79;41.38;101877.73;1790743;79;21022;-87
2022/12/06 21:27:01;;;;;;;8.78;4.25;;;;;;;-1.81;41.52;101875.55;1773162;80;21471;-85
2022/12/06 21:29:28;;;;;;;13.58;4.95;;;;;;;-1.82;41.70;101868.67;1787807;79;20944;-85
2022/12/06 21:31:56;;;;;;;8.35;4.80;;;;;;;-1.81;41.84;101865.27;1778363;79;21840;-86
2022/12/06 21:34:22;;;;;;;10.90;5.65;;;;;;;-1.78;41.88;101851.16;1793930;79;20880;-88
2022/12/06 21:36:49;;;;;;;11.10;5.70;;;;;;;-1.75;41.99;101851.20;1794559;77;20899;-86
2022/12/06 21:39:16;;;;;;;16.80;5.00;;;;;;;-1.71;41.99;101840.97;1787080;78;20898;-87
2022/12/06 21:41:45;;;;;;;9.30;5.10;;;;;;;-1.67;41.98;101841.44;1794190;77;20889;-87
2022/12/06 21:44:13;;;;;;;10.75;5.45;;;;;;;-1.67;41.94;101836.70;1789913;78;21277;-86
2022/12/06 21:46:40;;;;;;;15.72;5.58;;;;;;;-1.64;41.95;101835.89;1781613;79;21144;-86
2022/12/06 21:49:06;;;;;;;13.60;6.05;;;;;;;-1.63;41.97;101835.89;1796118;79;20948;-88
2022/12/06 21:51:33;;;;;;;11.03;6.15;;;;;;;-1.65;41.92;101830.29;1796621;79;20984;-86
2022/12/06 21:54:00;;;;;;;15.90;5.10;;;;;;;-1.71;42.14;101822.11;1796657;79;20983;-86
2022/12/06 21:56:28;;;;;;;11.08;5.33;;;;;;;-1.77;42.31;101823.33;1787341;79;21143;-86
2022/12/06 21:58:54;;;;;;;10.20;5.47;;;;;;;-1.80;42.46;101822.88;1778947;79;20956;-87
2022/12/06 22:01:26;;;;;;;14.13;5.67;;;;;;;-1.80;42.58;101812.59;1783279;79;20950;-86
2022/12/06 22:03:58;;;;;;;9.55;4.70;;;;;;;-1.78;42.67;101810.91;1786431;79;20928;-85
2022/12/06 22:06:25;;;;;;;9.53;5.40;;;;;;;-1.75;42.79;101810.06;1792022;79;21025;-86
2022/12/06 22:09:00;;;;;;;11.95;5.60;;;;;;;-1.81;43.03;101806.99;1796074;79;21741;-87
2022/12/06 22:11:28;;;;;;;10.75;5.25;;;;;;;-1.86;43.27;101802.23;1789233;79;21089;-87
2022/12/06 22:13:58;;;;;;;11.28;4.45;;;;;;;-1.88;43.49;101804.78;1789539;79;20923;-88
2022/12/06 22:16:25;;;;;;;9.40;4.87;;;;;;;-1.85;43.65;101801.81;1792236;79;20858;-86
2022/12/06 22:18:53;;;;;;;13.22;4.25;;;;;;;-1.81;43.75;101797.14;1792631;79;20964;-88
2022/12/06 22:21:25;;;;;;;9.15;4.17;;;;;;;-1.81;43.87;101803.57;1791432;79;21235;-85
2022/12/06 22:23:52;;;;;;;8.48;5.08;;;;;;;-1.85;44.01;101801.81;1786575;79;20933;-85
2022/12/06 22:26:21;;;;;;;11.90;4.75;;;;;;;-1.87;44.13;101795.36;1791378;79;20928;-87
2022/12/06 22:28:47;;;;;;;9.18;4.67;;;;;;;-1.84;44.22;101796.69;1789640;79;21408;-87
2022/12/06 22:31:20;;;;;;;10.32;5.10;;;;;;;-1.81;44.36;101795.86;1792951;79;20896;-87
2022/12/06 22:33:47;;;;;;;7.42;4.75;;;;;;;-1.85;44.58;101792.38;1791278;78;21918;-87
2022/12/06 22:36:15;;;;;;;12.37;6.20;;;;;;;-1.84;44.71;101789.41;1784781;79;21520;-86
2022/12/06 22:38:41;;;;;;;19.85;6.10;;;;;;;-1.84;44.81;101786.84;1783475;79;21438;-85
